sensor_id;sensor_type;location;lat;lon;timestamp;P1;durP1;ratioP1;P2;durP2;ratioP2
16262;SDS011;8239;48.594;8.598;2022-07-29T00:00:22;7.63;;;6.85;;
16262;SDS011;8239;48.594;8.598;2022-07-29T00:02:49;7.53;;;6.82;;
16262;SDS011;8239;48.594;8.598;2022-07-29T00:05:16;7.63;;;6.97;;
16262;SDS011;8239;48.594;8.598;2022-07-29T00:07:43;8.32;;;7.43;;
16262;SDS011;8239;48.594;8.598;2022-07-29T00:10:10;8.63;;;7.72;;
16262;SDS011;8239;48.594;8.598;2022-07-29T00:12:37;8.65;;;7.95;;
16262;SDS011;8239;48.594;8.598;2022-07-29T00:15:06;9.30;;;8.40;;
16262;SDS011;8239;48.594;8.598;2022-07-29T00:17:34;8.93;;;7.90;;
16262;SDS011;8239;48.594;8.598;2022-07-29T00:20:01;8.13;;;7.43;;
16262;SDS011;8239;48.594;8.598;2022-07-29T00:22:28;8.20;;;7.40;;
16262;SDS011;8239;48.594;8.598;2022-07-29T00:24:55;8.27;;;7.47;;
16262;SDS011;8239;48.594;8.598;2022-07-29T00:27:22;8.63;;;7.75;;
16262;SDS011;8239;48.594;8.598;2022-07-29T00:29:49;8.48;;;7.70;;
16262;SDS011;8239;48.594;8.598;2022-07-29T00:32:18;8.20;;;7.40;;
16262;SDS011;8239;48.594;8.598;2022-07-29T00:34:45;9.20;;;7.95;;
16262;SDS011;8239;48.594;8.598;2022-07-29T00:37:29;8.27;;;7.45;;
16262;SDS011;8239;48.594;8.598;2022-07-29T00:39:56;8.88;;;8.05;;
16262;SDS011;8239;48.594;8.598;2022-07-29T00:42:23;9.40;;;8.60;;
16262;SDS011;8239;48.594;8.598;2022-07-29T00:44:50;8.70;;;7.90;;
16262;SDS011;8239;48.594;8.598;2022-07-29T00:47:18;8.95;;;8.07;;
16262;SDS011;8239;48.594;8.598;2022-07-29T00:49:45;8.93;;;8.10;;
16262;SDS011;8239;48.594;8.598;2022-07-29T00:52:12;9.63;;;8.40;;
16262;SDS011;8239;48.594;8.598;2022-07-29T00:54:39;9.20;;;8.30;;
16262;SDS011;8239;48.594;8.598;2022-07-29T00:57:07;9.32;;;8.43;;
16262;SDS011;8239;48.594;8.598;2022-07-29T00:59:34;9.63;;;8.73;;
16262;SDS011;8239;48.594;8.598;2022-07-29T01:02:01;9.50;;;8.60;;
16262;SDS011;8239;48.594;8.598;2022-07-29T01:04:30;8.95;;;8.07;;
16262;SDS011;8239;48.594;8.598;2022-07-29T01:06:58;9.43;;;8.52;;
16262;SDS011;8239;48.594;8.598;2022-07-29T01:09:27;9.57;;;8.63;;
16262;SDS011;8239;48.594;8.598;2022-07-29T01:11:55;9.82;;;8.93;;
16262;SDS011;8239;48.594;8.598;2022-07-29T01:14:22;10.18;;;9.18;;
16262;SDS011;8239;48.594;8.598;2022-07-29T01:16:51;10.25;;;9.23;;
16262;SDS011;8239;48.594;8.598;2022-07-29T01:19:33;9.93;;;9.07;;
16262;SDS011;8239;48.594;8.598;2022-07-29T01:22:19;9.98;;;9.07;;
16262;SDS011;8239;48.594;8.598;2022-07-29T01:25:02;9.82;;;8.93;;
16262;SDS011;8239;48.594;8.598;2022-07-29T01:27:40;9.98;;;8.98;;
16262;SDS011;8239;48.594;8.598;2022-07-29T01:30:14;10.25;;;9.13;;
16262;SDS011;8239;48.594;8.598;2022-07-29T01:32:42;10.77;;;9.70;;
16262;SDS011;8239;48.594;8.598;2022-07-29T01:35:14;10.73;;;9.73;;
16262;SDS011;8239;48.594;8.598;2022-07-29T01:37:50;10.67;;;9.57;;
16262;SDS011;8239;48.594;8.598;2022-07-29T01:40:22;10.97;;;9.87;;
16262;SDS011;8239;48.594;8.598;2022-07-29T01:42:54;10.65;;;9.57;;
16262;SDS011;8239;48.594;8.598;2022-07-29T01:45:26;10.13;;;9.25;;
16262;SDS011;8239;48.594;8.598;2022-07-29T01:48:04;11.50;;;10.43;;
16262;SDS011;8239;48.594;8.598;2022-07-29T01:50:38;10.77;;;9.50;;
16262;SDS011;8239;48.594;8.598;2022-07-29T01:53:15;10.73;;;9.67;;
16262;SDS011;8239;48.594;8.598;2022-07-29T01:55:47;10.70;;;9.60;;
16262;SDS011;8239;48.594;8.598;2022-07-29T01:58:16;10.27;;;9.35;;
16262;SDS011;8239;48.594;8.598;2022-07-29T02:00:46;10.57;;;9.43;;
16262;SDS011;8239;48.594;8.598;2022-07-29T02:03:15;11.27;;;10.17;;
16262;SDS011;8239;48.594;8.598;2022-07-29T02:05:45;11.45;;;10.35;;
16262;SDS011;8239;48.594;8.598;2022-07-29T02:08:14;10.70;;;9.70;;
16262;SDS011;8239;48.594;8.598;2022-07-29T02:10:43;10.85;;;9.88;;
16262;SDS011;8239;48.594;8.598;2022-07-29T02:13:11;11.15;;;10.15;;
16262;SDS011;8239;48.594;8.598;2022-07-29T02:15:41;10.70;;;9.70;;
16262;SDS011;8239;48.594;8.598;2022-07-29T02:18:12;10.73;;;9.73;;
16262;SDS011;8239;48.594;8.598;2022-07-29T02:20:42;10.97;;;9.97;;
16262;SDS011;8239;48.594;8.598;2022-07-29T02:23:13;11.80;;;10.50;;
16262;SDS011;8239;48.594;8.598;2022-07-29T02:25:44;11.37;;;10.37;;
16262;SDS011;8239;48.594;8.598;2022-07-29T02:28:14;11.40;;;10.20;;
16262;SDS011;8239;48.594;8.598;2022-07-29T02:30:42;11.30;;;10.20;;
16262;SDS011;8239;48.594;8.598;2022-07-29T02:33:12;11.18;;;10.07;;
16262;SDS011;8239;48.594;8.598;2022-07-29T02:35:42;12.20;;;10.90;;
16262;SDS011;8239;48.594;8.598;2022-07-29T02:38:12;11.23;;;10.23;;
16262;SDS011;8239;48.594;8.598;2022-07-29T02:40:58;10.83;;;9.77;;
16262;SDS011;8239;48.594;8.598;2022-07-29T02:43:27;11.43;;;10.37;;
16262;SDS011;8239;48.594;8.598;2022-07-29T02:45:56;11.33;;;10.33;;
16262;SDS011;8239;48.594;8.598;2022-07-29T02:48:27;11.93;;;10.77;;
16262;SDS011;8239;48.594;8.598;2022-07-29T02:51:04;11.77;;;9.93;;
16262;SDS011;8239;48.594;8.598;2022-07-29T02:53:34;12.03;;;10.83;;
16262;SDS011;8239;48.594;8.598;2022-07-29T02:56:06;13.47;;;11.13;;
16262;SDS011;8239;48.594;8.598;2022-07-29T02:58:38;11.30;;;10.30;;
16262;SDS011;8239;48.594;8.598;2022-07-29T03:01:08;11.20;;;10.10;;
16262;SDS011;8239;48.594;8.598;2022-07-29T03:03:40;11.17;;;10.10;;
16262;SDS011;8239;48.594;8.598;2022-07-29T03:06:10;11.30;;;10.10;;
16262;SDS011;8239;48.594;8.598;2022-07-29T03:08:39;11.30;;;10.20;;
16262;SDS011;8239;48.594;8.598;2022-07-29T03:11:07;11.17;;;10.07;;
16262;SDS011;8239;48.594;8.598;2022-07-29T03:13:35;11.93;;;10.80;;
16262;SDS011;8239;48.594;8.598;2022-07-29T03:16:03;11.37;;;10.37;;
16262;SDS011;8239;48.594;8.598;2022-07-29T03:18:31;11.70;;;10.50;;
16262;SDS011;8239;48.594;8.598;2022-07-29T03:21:00;12.13;;;10.93;;
16262;SDS011;8239;48.594;8.598;2022-07-29T03:23:28;11.43;;;10.33;;
16262;SDS011;8239;48.594;8.598;2022-07-29T03:25:56;12.10;;;11.00;;
16262;SDS011;8239;48.594;8.598;2022-07-29T03:28:23;13.23;;;11.53;;
16262;SDS011;8239;48.594;8.598;2022-07-29T03:30:52;12.43;;;11.23;;
16262;SDS011;8239;48.594;8.598;2022-07-29T03:33:19;12.57;;;11.37;;
16262;SDS011;8239;48.594;8.598;2022-07-29T03:35:46;12.23;;;10.93;;
16262;SDS011;8239;48.594;8.598;2022-07-29T03:38:15;12.43;;;11.13;;
16262;SDS011;8239;48.594;8.598;2022-07-29T03:40:42;11.33;;;10.23;;
16262;SDS011;8239;48.594;8.598;2022-07-29T03:43:15;11.37;;;10.27;;
16262;SDS011;8239;48.594;8.598;2022-07-29T03:45:44;11.70;;;10.60;;
16262;SDS011;8239;48.594;8.598;2022-07-29T03:48:17;13.07;;;11.57;;
16262;SDS011;8239;48.594;8.598;2022-07-29T03:50:47;12.47;;;10.30;;
16262;SDS011;8239;48.594;8.598;2022-07-29T03:53:16;11.70;;;10.60;;
16262;SDS011;8239;48.594;8.598;2022-07-29T03:55:46;12.27;;;11.07;;
16262;SDS011;8239;48.594;8.598;2022-07-29T03:58:17;12.60;;;11.40;;
16262;SDS011;8239;48.594;8.598;2022-07-29T04:00:45;13.03;;;11.73;;
16262;SDS011;8239;48.594;8.598;2022-07-29T04:03:13;13.90;;;12.57;;
16262;SDS011;8239;48.594;8.598;2022-07-29T04:05:40;14.13;;;12.77;;
16262;SDS011;8239;48.594;8.598;2022-07-29T04:08:07;14.57;;;12.37;;
16262;SDS011;8239;48.594;8.598;2022-07-29T04:10:35;13.03;;;11.67;;
16262;SDS011;8239;48.594;8.598;2022-07-29T04:13:04;13.20;;;11.17;;
16262;SDS011;8239;48.594;8.598;2022-07-29T04:15:30;12.13;;;10.93;;
16262;SDS011;8239;48.594;8.598;2022-07-29T04:17:58;12.00;;;10.87;;
16262;SDS011;8239;48.594;8.598;2022-07-29T04:20:25;11.73;;;10.60;;
16262;SDS011;8239;48.594;8.598;2022-07-29T04:22:52;11.40;;;10.33;;
16262;SDS011;8239;48.594;8.598;2022-07-29T04:25:19;11.70;;;10.40;;
16262;SDS011;8239;48.594;8.598;2022-07-29T04:27:47;12.10;;;10.90;;
16262;SDS011;8239;48.594;8.598;2022-07-29T04:30:34;11.07;;;10.07;;
16262;SDS011;8239;48.594;8.598;2022-07-29T04:33:03;11.83;;;10.73;;
16262;SDS011;8239;48.594;8.598;2022-07-29T04:35:33;12.20;;;11.10;;
16262;SDS011;8239;48.594;8.598;2022-07-29T04:38:00;11.73;;;10.63;;
16262;SDS011;8239;48.594;8.598;2022-07-29T04:40:28;11.33;;;10.27;;
16262;SDS011;8239;48.594;8.598;2022-07-29T04:42:56;11.60;;;10.50;;
16262;SDS011;8239;48.594;8.598;2022-07-29T04:45:23;10.53;;;9.57;;
16262;SDS011;8239;48.594;8.598;2022-07-29T04:47:50;10.27;;;9.37;;
16262;SDS011;8239;48.594;8.598;2022-07-29T04:50:17;9.57;;;8.50;;
16262;SDS011;8239;48.594;8.598;2022-07-29T04:52:44;9.13;;;8.33;;
16262;SDS011;8239;48.594;8.598;2022-07-29T04:55:11;8.77;;;7.97;;
16262;SDS011;8239;48.594;8.598;2022-07-29T04:57:38;9.23;;;8.32;;
16262;SDS011;8239;48.594;8.598;2022-07-29T05:00:07;8.55;;;7.75;;
16262;SDS011;8239;48.594;8.598;2022-07-29T05:02:35;8.45;;;7.65;;
16262;SDS011;8239;48.594;8.598;2022-07-29T05:05:02;8.48;;;7.78;;
16262;SDS011;8239;48.594;8.598;2022-07-29T05:07:29;7.40;;;6.75;;
16262;SDS011;8239;48.594;8.598;2022-07-29T05:09:56;7.68;;;7.07;;
16262;SDS011;8239;48.594;8.598;2022-07-29T05:12:23;7.28;;;6.65;;
16262;SDS011;8239;48.594;8.598;2022-07-29T05:14:51;7.80;;;6.75;;
16262;SDS011;8239;48.594;8.598;2022-07-29T05:17:19;7.22;;;6.63;;
16262;SDS011;8239;48.594;8.598;2022-07-29T05:19:46;7.53;;;6.90;;
16262;SDS011;8239;48.594;8.598;2022-07-29T05:22:15;7.50;;;6.85;;
16262;SDS011;8239;48.594;8.598;2022-07-29T05:24:42;6.93;;;6.32;;
16262;SDS011;8239;48.594;8.598;2022-07-29T05:27:09;6.90;;;6.30;;
16262;SDS011;8239;48.594;8.598;2022-07-29T05:29:36;7.65;;;6.97;;
16262;SDS011;8239;48.594;8.598;2022-07-29T05:32:04;7.72;;;7.03;;
16262;SDS011;8239;48.594;8.598;2022-07-29T05:34:32;7.13;;;6.53;;
16262;SDS011;8239;48.594;8.598;2022-07-29T05:36:59;6.90;;;6.30;;
16262;SDS011;8239;48.594;8.598;2022-07-29T05:39:26;7.47;;;6.82;;
16262;SDS011;8239;48.594;8.598;2022-07-29T05:41:53;8.10;;;7.30;;
16262;SDS011;8239;48.594;8.598;2022-07-29T05:44:20;7.68;;;7.07;;
16262;SDS011;8239;48.594;8.598;2022-07-29T05:46:47;7.50;;;6.90;;
16262;SDS011;8239;48.594;8.598;2022-07-29T05:49:14;7.38;;;6.68;;
16262;SDS011;8239;48.594;8.598;2022-07-29T05:51:43;7.70;;;6.97;;
16262;SDS011;8239;48.594;8.598;2022-07-29T05:54:11;7.80;;;7.10;;
16262;SDS011;8239;48.594;8.598;2022-07-29T05:56:37;7.85;;;7.15;;
16262;SDS011;8239;48.594;8.598;2022-07-29T05:59:05;8.30;;;7.60;;
16262;SDS011;8239;48.594;8.598;2022-07-29T06:01:32;8.05;;;7.45;;
16262;SDS011;8239;48.594;8.598;2022-07-29T06:03:59;7.63;;;7.00;;
16262;SDS011;8239;48.594;8.598;2022-07-29T06:06:27;7.30;;;6.70;;
16262;SDS011;8239;48.594;8.598;2022-07-29T06:08:55;7.82;;;6.90;;
16262;SDS011;8239;48.594;8.598;2022-07-29T06:11:22;7.60;;;6.93;;
16262;SDS011;8239;48.594;8.598;2022-07-29T06:13:49;7.90;;;7.20;;
16262;SDS011;8239;48.594;8.598;2022-07-29T06:16:16;7.40;;;6.80;;
16262;SDS011;8239;48.594;8.598;2022-07-29T06:18:43;7.68;;;6.90;;
16262;SDS011;8239;48.594;8.598;2022-07-29T06:21:10;7.53;;;6.65;;
16262;SDS011;8239;48.594;8.598;2022-07-29T06:23:37;7.38;;;6.68;;
16262;SDS011;8239;48.594;8.598;2022-07-29T06:26:06;7.50;;;6.80;;
16262;SDS011;8239;48.594;8.598;2022-07-29T06:28:33;6.90;;;6.35;;
16262;SDS011;8239;48.594;8.598;2022-07-29T06:31:00;6.85;;;6.15;;
16262;SDS011;8239;48.594;8.598;2022-07-29T06:33:27;7.38;;;6.78;;
16262;SDS011;8239;48.594;8.598;2022-07-29T06:35:54;6.68;;;6.18;;
16262;SDS011;8239;48.594;8.598;2022-07-29T06:38:21;6.60;;;6.00;;
16262;SDS011;8239;48.594;8.598;2022-07-29T06:40:48;6.85;;;6.20;;
16262;SDS011;8239;48.594;8.598;2022-07-29T06:43:30;6.40;;;5.90;;
16262;SDS011;8239;48.594;8.598;2022-07-29T06:46:01;6.55;;;5.95;;
16262;SDS011;8239;48.594;8.598;2022-07-29T06:48:29;6.95;;;6.30;;
16262;SDS011;8239;48.594;8.598;2022-07-29T06:50:57;6.35;;;5.75;;
16262;SDS011;8239;48.594;8.598;2022-07-29T06:53:25;6.40;;;5.90;;
16262;SDS011;8239;48.594;8.598;2022-07-29T06:55:52;6.03;;;5.53;;
16262;SDS011;8239;48.594;8.598;2022-07-29T06:58:21;6.20;;;5.70;;
16262;SDS011;8239;48.594;8.598;2022-07-29T07:00:49;6.57;;;5.97;;
16262;SDS011;8239;48.594;8.598;2022-07-29T07:03:16;5.55;;;5.13;;
16262;SDS011;8239;48.594;8.598;2022-07-29T07:05:44;5.35;;;4.95;;
16262;SDS011;8239;48.594;8.598;2022-07-29T07:08:12;5.50;;;5.00;;
16262;SDS011;8239;48.594;8.598;2022-07-29T07:10:41;5.78;;;5.35;;
16262;SDS011;8239;48.594;8.598;2022-07-29T07:13:08;6.07;;;5.10;;
16262;SDS011;8239;48.594;8.598;2022-07-29T07:15:35;5.32;;;5.03;;
16262;SDS011;8239;48.594;8.598;2022-07-29T07:18:03;5.70;;;5.20;;
16262;SDS011;8239;48.594;8.598;2022-07-29T07:20:31;5.70;;;5.22;;
16262;SDS011;8239;48.594;8.598;2022-07-29T07:22:58;4.93;;;4.55;;
16262;SDS011;8239;48.594;8.598;2022-07-29T07:25:25;5.00;;;4.50;;
16262;SDS011;8239;48.594;8.598;2022-07-29T07:27:52;4.82;;;4.43;;
16262;SDS011;8239;48.594;8.598;2022-07-29T07:30:19;5.20;;;4.70;;
16262;SDS011;8239;48.594;8.598;2022-07-29T07:32:46;4.32;;;4.03;;
16262;SDS011;8239;48.594;8.598;2022-07-29T07:35:15;4.28;;;3.95;;
16262;SDS011;8239;48.594;8.598;2022-07-29T07:37:42;4.60;;;4.20;;
16262;SDS011;8239;48.594;8.598;2022-07-29T07:40:10;4.18;;;3.88;;
16262;SDS011;8239;48.594;8.598;2022-07-29T07:42:37;4.20;;;3.80;;
16262;SDS011;8239;48.594;8.598;2022-07-29T07:45:05;3.58;;;3.28;;
16262;SDS011;8239;48.594;8.598;2022-07-29T07:47:34;4.28;;;3.97;;
16262;SDS011;8239;48.594;8.598;2022-07-29T07:50:01;5.93;;;3.72;;
16262;SDS011;8239;48.594;8.598;2022-07-29T07:52:30;3.60;;;3.40;;
16262;SDS011;8239;48.594;8.598;2022-07-29T07:54:57;3.80;;;3.60;;
16262;SDS011;8239;48.594;8.598;2022-07-29T07:57:27;4.25;;;3.88;;
16262;SDS011;8239;48.594;8.598;2022-07-29T07:59:54;4.03;;;3.72;;
16262;SDS011;8239;48.594;8.598;2022-07-29T08:02:21;3.83;;;3.53;;
16262;SDS011;8239;48.594;8.598;2022-07-29T08:04:48;4.05;;;3.70;;
16262;SDS011;8239;48.594;8.598;2022-07-29T08:07:15;4.03;;;3.60;;
16262;SDS011;8239;48.594;8.598;2022-07-29T08:09:51;4.75;;;3.88;;
16262;SDS011;8239;48.594;8.598;2022-07-29T08:12:18;3.42;;;3.22;;
16262;SDS011;8239;48.594;8.598;2022-07-29T08:14:44;3.90;;;3.55;;
16262;SDS011;8239;48.594;8.598;2022-07-29T08:17:12;4.13;;;3.75;;
16262;SDS011;8239;48.594;8.598;2022-07-29T08:19:39;4.00;;;3.70;;
16262;SDS011;8239;48.594;8.598;2022-07-29T08:22:06;3.75;;;3.35;;
16262;SDS011;8239;48.594;8.598;2022-07-29T08:24:33;4.10;;;3.70;;
16262;SDS011;8239;48.594;8.598;2022-07-29T08:27:10;4.38;;;3.38;;
16262;SDS011;8239;48.594;8.598;2022-07-29T08:29:38;3.58;;;3.35;;
16262;SDS011;8239;48.594;8.598;2022-07-29T08:32:05;3.60;;;3.30;;
16262;SDS011;8239;48.594;8.598;2022-07-29T08:34:32;3.83;;;3.42;;
16262;SDS011;8239;48.594;8.598;2022-07-29T08:36:59;3.80;;;3.50;;
16262;SDS011;8239;48.594;8.598;2022-07-29T08:39:26;3.70;;;3.40;;
16262;SDS011;8239;48.594;8.598;2022-07-29T08:41:53;3.78;;;3.40;;
16262;SDS011;8239;48.594;8.598;2022-07-29T08:44:22;3.90;;;3.50;;
16262;SDS011;8239;48.594;8.598;2022-07-29T08:46:50;3.60;;;3.38;;
16262;SDS011;8239;48.594;8.598;2022-07-29T08:49:17;4.32;;;3.55;;
16262;SDS011;8239;48.594;8.598;2022-07-29T08:51:44;3.80;;;3.50;;
16262;SDS011;8239;48.594;8.598;2022-07-29T08:54:11;4.90;;;3.33;;
16262;SDS011;8239;48.594;8.598;2022-07-29T08:56:43;4.45;;;3.67;;
16262;SDS011;8239;48.594;8.598;2022-07-29T08:59:14;3.53;;;3.33;;
16262;SDS011;8239;48.594;8.598;2022-07-29T09:01:43;3.75;;;3.45;;
16262;SDS011;8239;48.594;8.598;2022-07-29T09:04:12;3.97;;;3.42;;
16262;SDS011;8239;48.594;8.598;2022-07-29T09:06:46;4.95;;;3.50;;
16262;SDS011;8239;48.594;8.598;2022-07-29T09:09:14;4.10;;;3.70;;
16262;SDS011;8239;48.594;8.598;2022-07-29T09:11:41;3.83;;;3.45;;
16262;SDS011;8239;48.594;8.598;2022-07-29T09:14:08;3.75;;;3.45;;
16262;SDS011;8239;48.594;8.598;2022-07-29T09:16:46;4.40;;;3.63;;
16262;SDS011;8239;48.594;8.598;2022-07-29T09:19:21;3.78;;;3.53;;
16262;SDS011;8239;48.594;8.598;2022-07-29T09:21:52;3.65;;;3.45;;
16262;SDS011;8239;48.594;8.598;2022-07-29T09:24:27;5.13;;;4.15;;
16262;SDS011;8239;48.594;8.598;2022-07-29T09:27:07;3.38;;;3.17;;
16262;SDS011;8239;48.594;8.598;2022-07-29T09:29:36;3.70;;;3.40;;
16262;SDS011;8239;48.594;8.598;2022-07-29T09:32:08;3.80;;;3.50;;
16262;SDS011;8239;48.594;8.598;2022-07-29T09:34:36;3.80;;;3.50;;
16262;SDS011;8239;48.594;8.598;2022-07-29T09:37:03;3.90;;;3.50;;
16262;SDS011;8239;48.594;8.598;2022-07-29T09:39:32;4.20;;;3.80;;
16262;SDS011;8239;48.594;8.598;2022-07-29T09:42:00;3.95;;;3.50;;
16262;SDS011;8239;48.594;8.598;2022-07-29T09:44:40;4.30;;;3.90;;
16262;SDS011;8239;48.594;8.598;2022-07-29T09:47:09;3.78;;;3.47;;
16262;SDS011;8239;48.594;8.598;2022-07-29T09:49:50;4.20;;;3.80;;
16262;SDS011;8239;48.594;8.598;2022-07-29T09:52:18;4.05;;;3.67;;
16262;SDS011;8239;48.594;8.598;2022-07-29T09:54:46;4.30;;;3.83;;
16262;SDS011;8239;48.594;8.598;2022-07-29T09:57:24;5.47;;;3.42;;
16262;SDS011;8239;48.594;8.598;2022-07-29T09:59:55;3.45;;;3.10;;
16262;SDS011;8239;48.594;8.598;2022-07-29T10:02:28;3.80;;;3.40;;
16262;SDS011;8239;48.594;8.598;2022-07-29T10:04:57;3.78;;;3.47;;
16262;SDS011;8239;48.594;8.598;2022-07-29T10:07:25;4.28;;;3.88;;
16262;SDS011;8239;48.594;8.598;2022-07-29T10:09:53;4.30;;;4.00;;
16262;SDS011;8239;48.594;8.598;2022-07-29T10:12:22;5.18;;;3.70;;
16262;SDS011;8239;48.594;8.598;2022-07-29T10:14:50;4.28;;;3.72;;
16262;SDS011;8239;48.594;8.598;2022-07-29T10:17:17;4.88;;;3.72;;
16262;SDS011;8239;48.594;8.598;2022-07-29T10:19:46;4.25;;;3.90;;
16262;SDS011;8239;48.594;8.598;2022-07-29T10:22:15;4.45;;;3.97;;
16262;SDS011;8239;48.594;8.598;2022-07-29T10:24:42;3.90;;;3.70;;
16262;SDS011;8239;48.594;8.598;2022-07-29T10:27:09;4.47;;;3.78;;
16262;SDS011;8239;48.594;8.598;2022-07-29T10:29:36;3.92;;;3.63;;
16262;SDS011;8239;48.594;8.598;2022-07-29T10:32:12;4.60;;;3.80;;
16262;SDS011;8239;48.594;8.598;2022-07-29T10:34:51;5.55;;;3.70;;
16262;SDS011;8239;48.594;8.598;2022-07-29T10:37:35;4.05;;;3.75;;
16262;SDS011;8239;48.594;8.598;2022-07-29T10:40:15;3.50;;;3.20;;
16262;SDS011;8239;48.594;8.598;2022-07-29T10:43:14;4.47;;;3.05;;
16262;SDS011;8239;48.594;8.598;2022-07-29T10:45:45;5.55;;;3.40;;
16262;SDS011;8239;48.594;8.598;2022-07-29T10:48:14;4.45;;;3.28;;
16262;SDS011;8239;48.594;8.598;2022-07-29T10:50:59;3.50;;;3.20;;
16262;SDS011;8239;48.594;8.598;2022-07-29T10:56:25;3.30;;;3.10;;
16262;SDS011;8239;48.594;8.598;2022-07-29T11:01:49;4.70;;;3.10;;
16262;SDS011;8239;48.594;8.598;2022-07-29T11:04:22;5.75;;;3.08;;
16262;SDS011;8239;48.594;8.598;2022-07-29T11:07:26;3.58;;;3.28;;
16262;SDS011;8239;48.594;8.598;2022-07-29T11:12:46;4.57;;;4.18;;
16262;SDS011;8239;48.594;8.598;2022-07-29T11:15:14;4.93;;;3.97;;
16262;SDS011;8239;48.594;8.598;2022-07-29T11:20:30;4.55;;;3.83;;
16262;SDS011;8239;48.594;8.598;2022-07-29T11:23:19;4.80;;;3.70;;
16262;SDS011;8239;48.594;8.598;2022-07-29T11:28:53;3.80;;;3.50;;
16262;SDS011;8239;48.594;8.598;2022-07-29T11:31:32;3.90;;;3.40;;
16262;SDS011;8239;48.594;8.598;2022-07-29T11:34:23;3.97;;;3.58;;
16262;SDS011;8239;48.594;8.598;2022-07-29T11:42:47;4.28;;;3.25;;
16262;SDS011;8239;48.594;8.598;2022-07-29T11:45:22;4.20;;;3.80;;
16262;SDS011;8239;48.594;8.598;2022-07-29T11:47:54;4.20;;;3.80;;
16262;SDS011;8239;48.594;8.598;2022-07-29T11:50:29;3.80;;;3.38;;
16262;SDS011;8239;48.594;8.598;2022-07-29T11:53:01;4.53;;;3.28;;
16262;SDS011;8239;48.594;8.598;2022-07-29T11:55:40;4.32;;;3.70;;
16262;SDS011;8239;48.594;8.598;2022-07-29T11:58:08;3.70;;;3.40;;
16262;SDS011;8239;48.594;8.598;2022-07-29T12:00:36;3.97;;;3.72;;
16262;SDS011;8239;48.594;8.598;2022-07-29T12:03:04;3.60;;;3.38;;
16262;SDS011;8239;48.594;8.598;2022-07-29T12:05:34;4.18;;;3.42;;
16262;SDS011;8239;48.594;8.598;2022-07-29T12:08:07;3.40;;;3.20;;
16262;SDS011;8239;48.594;8.598;2022-07-29T12:10:37;3.45;;;3.25;;
16262;SDS011;8239;48.594;8.598;2022-07-29T12:13:05;3.80;;;3.40;;
16262;SDS011;8239;48.594;8.598;2022-07-29T12:15:33;3.60;;;3.30;;
16262;SDS011;8239;48.594;8.598;2022-07-29T12:18:09;3.20;;;2.90;;
16262;SDS011;8239;48.594;8.598;2022-07-29T12:20:40;2.83;;;2.60;;
16262;SDS011;8239;48.594;8.598;2022-07-29T12:23:08;3.80;;;2.90;;
16262;SDS011;8239;48.594;8.598;2022-07-29T12:25:39;3.13;;;2.92;;
16262;SDS011;8239;48.594;8.598;2022-07-29T12:28:08;2.90;;;2.70;;
16262;SDS011;8239;48.594;8.598;2022-07-29T12:30:41;3.55;;;3.15;;
16262;SDS011;8239;48.594;8.598;2022-07-29T12:33:16;3.45;;;3.17;;
16262;SDS011;8239;48.594;8.598;2022-07-29T12:35:47;3.03;;;2.72;;
16262;SDS011;8239;48.594;8.598;2022-07-29T12:38:16;3.47;;;3.28;;
16262;SDS011;8239;48.594;8.598;2022-07-29T12:40:45;4.60;;;3.17;;
16262;SDS011;8239;48.594;8.598;2022-07-29T12:43:14;3.20;;;3.00;;
16262;SDS011;8239;48.594;8.598;2022-07-29T12:45:45;3.33;;;3.03;;
16262;SDS011;8239;48.594;8.598;2022-07-29T12:48:13;2.97;;;2.78;;
16262;SDS011;8239;48.594;8.598;2022-07-29T12:50:53;3.50;;;3.17;;
16262;SDS011;8239;48.594;8.598;2022-07-29T12:53:24;3.50;;;3.15;;
16262;SDS011;8239;48.594;8.598;2022-07-29T12:55:53;3.92;;;3.38;;
16262;SDS011;8239;48.594;8.598;2022-07-29T12:58:28;3.90;;;3.60;;
16262;SDS011;8239;48.594;8.598;2022-07-29T13:01:03;3.85;;;3.55;;
16262;SDS011;8239;48.594;8.598;2022-07-29T13:03:43;5.13;;;4.20;;
16262;SDS011;8239;48.594;8.598;2022-07-29T13:06:27;4.30;;;3.90;;
16262;SDS011;8239;48.594;8.598;2022-07-29T13:08:59;4.53;;;3.95;;
16262;SDS011;8239;48.594;8.598;2022-07-29T13:11:32;4.30;;;3.90;;
16262;SDS011;8239;48.594;8.598;2022-07-29T13:14:00;6.65;;;4.15;;
16262;SDS011;8239;48.594;8.598;2022-07-29T13:16:27;4.57;;;3.70;;
16262;SDS011;8239;48.594;8.598;2022-07-29T13:19:07;4.75;;;3.90;;
16262;SDS011;8239;48.594;8.598;2022-07-29T13:21:36;3.83;;;3.58;;
16262;SDS011;8239;48.594;8.598;2022-07-29T13:24:04;4.20;;;3.80;;
16262;SDS011;8239;48.594;8.598;2022-07-29T13:26:34;4.55;;;4.15;;
16262;SDS011;8239;48.594;8.598;2022-07-29T13:29:05;4.22;;;3.83;;
16262;SDS011;8239;48.594;8.598;2022-07-29T13:31:33;4.55;;;3.70;;
16262;SDS011;8239;48.594;8.598;2022-07-29T13:34:00;3.90;;;3.60;;
16262;SDS011;8239;48.594;8.598;2022-07-29T13:36:27;5.47;;;3.80;;
16262;SDS011;8239;48.594;8.598;2022-07-29T13:38:54;4.13;;;3.72;;
16262;SDS011;8239;48.594;8.598;2022-07-29T13:41:21;4.43;;;3.60;;
16262;SDS011;8239;48.594;8.598;2022-07-29T13:43:49;4.25;;;3.85;;
16262;SDS011;8239;48.594;8.598;2022-07-29T13:46:16;4.30;;;3.90;;
16262;SDS011;8239;48.594;8.598;2022-07-29T13:48:43;5.38;;;3.88;;
16262;SDS011;8239;48.594;8.598;2022-07-29T13:51:10;3.83;;;3.53;;
16262;SDS011;8239;48.594;8.598;2022-07-29T13:53:38;5.32;;;4.07;;
16262;SDS011;8239;48.594;8.598;2022-07-29T13:56:05;4.35;;;3.90;;
16262;SDS011;8239;48.594;8.598;2022-07-29T13:58:32;5.43;;;3.90;;
16262;SDS011;8239;48.594;8.598;2022-07-29T14:01:00;4.45;;;3.88;;
16262;SDS011;8239;48.594;8.598;2022-07-29T14:03:27;3.90;;;3.60;;
16262;SDS011;8239;48.594;8.598;2022-07-29T14:05:55;4.32;;;3.55;;
16262;SDS011;8239;48.594;8.598;2022-07-29T14:08:24;4.30;;;3.60;;
16262;SDS011;8239;48.594;8.598;2022-07-29T14:10:52;3.88;;;3.50;;
16262;SDS011;8239;48.594;8.598;2022-07-29T14:13:19;4.55;;;3.28;;
16262;SDS011;8239;48.594;8.598;2022-07-29T14:15:46;3.28;;;3.00;;
16262;SDS011;8239;48.594;8.598;2022-07-29T14:18:14;3.03;;;2.80;;
16262;SDS011;8239;48.594;8.598;2022-07-29T14:20:41;3.00;;;2.80;;
16262;SDS011;8239;48.594;8.598;2022-07-29T14:23:08;3.85;;;2.88;;
16262;SDS011;8239;48.594;8.598;2022-07-29T14:25:35;4.35;;;3.00;;
16262;SDS011;8239;48.594;8.598;2022-07-29T14:28:02;3.22;;;2.80;;
16262;SDS011;8239;48.594;8.598;2022-07-29T14:30:29;2.85;;;2.65;;
16262;SDS011;8239;48.594;8.598;2022-07-29T14:32:56;3.97;;;3.13;;
16262;SDS011;8239;48.594;8.598;2022-07-29T14:35:25;3.35;;;3.00;;
16262;SDS011;8239;48.594;8.598;2022-07-29T14:37:52;2.75;;;2.55;;
16262;SDS011;8239;48.594;8.598;2022-07-29T14:40:19;6.20;;;3.10;;
16262;SDS011;8239;48.594;8.598;2022-07-29T14:42:46;3.85;;;3.50;;
16262;SDS011;8239;48.594;8.598;2022-07-29T14:45:14;3.90;;;3.00;;
16262;SDS011;8239;48.594;8.598;2022-07-29T14:47:41;3.78;;;3.13;;
16262;SDS011;8239;48.594;8.598;2022-07-29T14:50:08;3.10;;;2.90;;
16262;SDS011;8239;48.594;8.598;2022-07-29T14:52:37;3.67;;;2.75;;
16262;SDS011;8239;48.594;8.598;2022-07-29T14:55:07;4.10;;;2.97;;
16262;SDS011;8239;48.594;8.598;2022-07-29T14:57:35;3.03;;;2.83;;
16262;SDS011;8239;48.594;8.598;2022-07-29T15:00:03;4.03;;;2.92;;
16262;SDS011;8239;48.594;8.598;2022-07-29T15:02:31;3.30;;;2.50;;
16262;SDS011;8239;48.594;8.598;2022-07-29T15:04:59;3.55;;;2.53;;
16262;SDS011;8239;48.594;8.598;2022-07-29T15:07:26;2.83;;;2.22;;
16262;SDS011;8239;48.594;8.598;2022-07-29T15:09:54;3.08;;;2.42;;
16262;SDS011;8239;48.594;8.598;2022-07-29T15:12:21;2.47;;;2.28;;
16262;SDS011;8239;48.594;8.598;2022-07-29T15:14:48;3.88;;;2.40;;
16262;SDS011;8239;48.594;8.598;2022-07-29T15:17:15;3.72;;;2.13;;
16262;SDS011;8239;48.594;8.598;2022-07-29T15:19:42;2.75;;;2.55;;
16262;SDS011;8239;48.594;8.598;2022-07-29T15:22:09;2.88;;;2.53;;
16262;SDS011;8239;48.594;8.598;2022-07-29T15:24:36;2.40;;;2.20;;
16262;SDS011;8239;48.594;8.598;2022-07-29T15:27:05;4.22;;;2.20;;
16262;SDS011;8239;48.594;8.598;2022-07-29T15:29:32;2.65;;;2.10;;